Time;durP1;ratioP1;P1;durP2;ratioP2;P2;SDS_P1;SDS_P2;PMS_P1;PMS_P2;Temp;Humidity;BMP_temperature;BMP_pressure;BME280_temperature;BME280_humidity;BME280_pressure;Samples;Min_cycle;Max_cycle;Signal;HPM_P1;HPM_P2
2022/05/11 00:01:37;;;;;;;4.87;2.78;;;15.50;99.90;;;;;;7363555;32;20296;-59
2022/05/11 00:05:39;;;;;;;4.37;3.17;;;15.50;99.90;;;;;;7369333;32;20638;-60
2022/05/11 00:09:41;;;;;;;6.90;3.47;;;15.50;99.90;;;;;;7367288;32;20159;-60
2022/05/11 00:13:43;;;;;;;3.78;2.65;;;15.40;99.90;;;;;;7363075;32;20138;-59
2022/05/11 00:17:45;;;;;;;4.15;3.05;;;15.30;99.90;;;;;;7366456;32;20107;-59
2022/05/11 00:21:46;;;;;;;5.85;3.12;;;15.30;99.90;;;;;;7359563;32;20110;-60
2022/05/11 00:25:48;;;;;;;8.73;3.00;;;15.30;99.90;;;;;;7343410;32;20111;-60
2022/05/11 00:29:50;;;;;;;4.57;2.80;;;15.20;99.90;;;;;;7357523;32;20185;-60
2022/05/11 00:33:52;;;;;;;6.45;3.00;;;15.20;99.90;;;;;;7363588;32;20161;-59
2022/05/11 00:37:54;;;;;;;5.03;2.62;;;15.20;99.90;;;;;;7356273;32;20137;-59
2022/05/11 00:41:56;;;;;;;2.72;2.33;;;15.10;99.90;;;;;;7339046;32;20157;-59
2022/05/11 00:46:28;;;;;;;4.62;2.72;;;15.10;99.90;;;;;;7354082;32;20837;-59
2022/05/11 00:50:34;;;;;;;4.97;2.55;;;15.10;99.90;;;;;;7357375;32;20125;-60
2022/05/11 00:54:40;;;;;;;6.50;2.80;;;15.10;99.90;;;;;;7357519;32;20194;-59
2022/05/11 00:58:50;;;;;;;5.00;2.90;;;15.00;99.90;;;;;;7356528;32;20102;-60
2022/05/11 01:02:59;;;;;;;4.25;2.60;;;15.00;99.90;;;;;;7358803;32;20107;-60
2022/05/11 01:07:02;;;;;;;6.55;2.97;;;15.10;99.90;;;;;;7361836;32;20111;-63
2022/05/11 01:11:04;;;;;;;3.78;2.72;;;15.10;99.90;;;;;;7359780;32;20157;-60
2022/05/11 01:15:08;;;;;;;4.78;2.58;;;15.00;99.90;;;;;;7361782;32;20325;-60
2022/05/11 01:19:22;;;;;;;3.12;2.53;;;15.00;99.90;;;;;;7353660;32;20133;-60
2022/05/11 01:23:33;;;;;;;3.97;2.33;;;15.00;99.90;;;;;;7350085;32;20107;-60
2022/05/11 01:27:45;;;;;;;3.15;2.30;;;15.00;99.90;;;;;;7362269;32;20158;-60
2022/05/11 01:31:47;;;;;;;5.82;2.67;;;15.00;99.90;;;;;;7360798;32;20203;-61
2022/05/11 01:36:16;;;;;;;5.90;2.67;;;14.90;99.90;;;;;;7362500;32;20165;-60
2022/05/11 01:40:18;;;;;;;3.85;2.58;;;14.90;99.90;;;;;;7354681;32;20221;-60
2022/05/11 01:44:20;;;;;;;8.35;2.87;;;14.90;99.90;;;;;;7344736;32;20471;-61
2022/05/11 01:48:23;;;;;;;4.90;2.78;;;14.80;99.90;;;;;;7344467;32;20107;-59
2022/05/11 01:52:24;;;;;;;6.50;2.85;;;14.80;99.90;;;;;;7353513;32;20518;-61
2022/05/11 01:56:26;;;;;;;7.65;2.80;;;14.60;99.90;;;;;;7353224;32;20222;-59
2022/05/11 02:00:28;;;;;;;6.70;2.70;;;14.60;99.90;;;;;;7353582;32;20129;-60
2022/05/11 02:08:50;;;;;;;6.70;2.72;;;14.50;99.90;;;;;;7362442;32;20817;-60
2022/05/11 02:12:52;;;;;;;9.48;2.90;;;14.40;99.90;;;;;;7343443;32;20118;-60
2022/05/11 02:16:54;;;;;;;4.35;2.55;;;14.30;99.90;;;;;;7356993;32;20522;-59
2022/05/11 02:20:56;;;;;;;7.93;2.90;;;14.30;99.90;;;;;;7358818;32;20226;-59
2022/05/11 02:24:57;;;;;;;6.12;3.00;;;14.20;99.90;;;;;;7362845;32;20137;-60
2022/05/11 02:28:59;;;;;;;7.60;2.83;;;14.20;99.90;;;;;;7356739;32;20212;-60
2022/05/11 02:33:01;;;;;;;4.53;2.78;;;14.20;99.90;;;;;;7346402;32;20729;-60
2022/05/11 02:37:03;;;;;;;6.22;3.20;;;14.10;99.90;;;;;;7345882;32;20137;-60
2022/05/11 02:41:05;;;;;;;4.82;2.50;;;14.00;99.90;;;;;;7358574;32;20203;-59
2022/05/11 02:45:08;;;;;;;6.20;2.80;;;14.00;99.90;;;;;;7352246;32;20114;-60
2022/05/11 02:49:11;;;;;;;3.65;2.70;;;14.00;99.90;;;;;;7329933;32;20119;-59
2022/05/11 02:53:14;;;;;;;5.03;3.10;;;14.00;99.90;;;;;;7355100;32;20173;-59
2022/05/11 02:57:19;;;;;;;4.37;2.83;;;13.90;99.90;;;;;;7352713;32;20111;-60
2022/05/11 03:01:20;;;;;;;5.78;2.97;;;13.80;99.90;;;;;;7353064;32;20220;-61
2022/05/11 03:05:22;;;;;;;5.72;3.12;;;13.80;99.90;;;;;;7344282;32;20152;-59
2022/05/11 03:09:24;;;;;;;5.25;2.90;;;13.80;99.90;;;;;;7347022;32;20253;-60
2022/05/11 03:13:26;;;;;;;4.87;3.17;;;13.80;99.90;;;;;;7355429;32;20254;-60
2022/05/11 03:17:28;;;;;;;5.50;3.17;;;13.80;99.90;;;;;;7354957;32;20421;-59
2022/05/11 03:21:30;;;;;;;6.07;2.90;;;13.70;99.90;;;;;;7350781;32;20182;-61
2022/05/11 03:25:32;;;;;;;6.93;3.08;;;13.60;99.90;;;;;;7354418;32;20108;-60
2022/05/11 03:29:33;;;;;;;4.28;3.30;;;13.60;99.90;;;;;;7342617;32;20115;-60
2022/05/11 03:37:55;;;;;;;4.97;2.83;;;13.50;99.90;;;;;;7353816;32;20098;-60
2022/05/11 03:41:57;;;;;;;8.20;2.90;;;13.50;99.90;;;;;;7349622;32;20248;-59
2022/05/11 03:45:59;;;;;;;8.13;3.47;;;13.60;99.90;;;;;;7354441;32;20111;-60
2022/05/11 03:50:02;;;;;;;5.53;2.80;;;13.60;99.90;;;;;;7357886;32;20562;-59
2022/05/11 03:54:03;;;;;;;3.53;2.90;;;13.60;99.90;;;;;;7353998;32;20506;-59
2022/05/11 03:58:05;;;;;;;4.97;3.08;;;13.50;99.90;;;;;;7358372;32;20258;-60
2022/05/11 04:02:07;;;;;;;5.47;3.00;;;13.50;99.90;;;;;;7359681;32;20210;-59
2022/05/11 04:06:09;;;;;;;4.32;2.85;;;13.40;99.90;;;;;;7345919;32;20124;-59
2022/05/11 04:10:13;;;;;;;3.70;2.70;;;13.40;99.90;;;;;;7356471;32;20107;-60
2022/05/11 04:14:15;;;;;;;5.25;3.28;;;13.40;99.90;;;;;;7362853;32;20666;-59
2022/05/11 04:18:18;;;;;;;6.93;3.42;;;13.40;99.90;;;;;;7356359;32;20345;-60
2022/05/11 04:22:19;;;;;;;5.18;3.00;;;13.40;99.90;;;;;;7359786;32;20139;-60
2022/05/11 04:26:21;;;;;;;4.97;2.80;;;13.40;99.90;;;;;;7360807;32;20698;-61
2022/05/11 04:30:26;;;;;;;8.13;3.25;;;13.40;99.90;;;;;;7349734;32;20240;-61
2022/05/11 04:34:28;;;;;;;5.87;3.10;;;13.40;99.90;;;;;;7364842;32;20726;-61
2022/05/11 04:38:29;;;;;;;7.32;2.90;;;13.40;99.90;;;;;;7361355;32;20240;-61
2022/05/11 04:42:31;;;;;;;6.28;3.10;;;13.40;99.90;;;;;;7359889;32;20106;-59
2022/05/11 04:46:34;;;;;;;4.60;2.87;;;13.50;99.90;;;;;;7361941;32;20881;-61
2022/05/11 04:50:38;;;;;;;6.57;3.40;;;13.60;99.90;;;;;;7341204;32;20270;-63
2022/05/11 04:54:43;;;;;;;5.68;3.08;;;13.80;99.90;;;;;;7346021;32;20716;-62
2022/05/11 04:58:45;;;;;;;5.03;3.33;;;14.00;99.90;;;;;;7361036;32;20103;-63
2022/05/11 05:02:46;;;;;;;3.95;2.67;;;14.20;99.90;;;;;;7361050;32;20116;-62
2022/05/11 05:06:48;;;;;;;6.18;3.20;;;14.20;99.90;;;;;;7348024;32;20652;-62
2022/05/11 05:10:50;;;;;;;4.82;3.05;;;14.30;99.90;;;;;;7356051;32;20225;-63
2022/05/11 05:14:52;;;;;;;5.90;3.40;;;14.40;99.90;;;;;;7359164;32;20104;-63
2022/05/11 05:18:54;;;;;;;7.43;3.37;;;14.40;99.90;;;;;;7360464;32;20119;-63
2022/05/11 05:22:56;;;;;;;6.62;3.80;;;14.50;99.90;;;;;;7365921;32;20671;-63
2022/05/11 05:26:59;;;;;;;7.70;3.60;;;14.40;99.90;;;;;;7357504;32;20131;-63
2022/05/11 05:31:09;;;;;;;5.03;3.25;;;14.50;99.90;;;;;;7360738;32;20899;-62
2022/05/11 05:35:16;;;;;;;8.57;4.03;;;14.60;99.90;;;;;;7348162;32;20103;-63
2022/05/11 05:39:17;;;;;;;7.30;3.85;;;14.60;99.90;;;;;;7341102;32;20104;-63
2022/05/11 05:43:20;;;;;;;7.32;3.50;;;14.70;99.90;;;;;;7353745;32;20111;-61
2022/05/11 05:47:21;;;;;;;5.93;3.60;;;14.80;99.90;;;;;;7356838;32;20663;-61
2022/05/11 05:51:25;;;;;;;6.07;4.25;;;14.90;99.90;;;;;;7370332;32;20110;-61
2022/05/11 05:55:26;;;;;;;7.00;4.22;;;15.00;99.90;;;;;;7352220;32;20220;-62
2022/05/11 05:59:28;;;;;;;8.20;4.78;;;15.20;99.90;;;;;;7356003;32;20107;-61
2022/05/11 06:03:32;;;;;;;6.57;4.70;;;15.30;99.90;;;;;;7340446;32;20129;-61
2022/05/11 06:07:38;;;;;;;6.00;4.15;;;15.60;99.90;;;;;;7355516;32;20178;-62
2022/05/11 06:11:39;;;;;;;9.40;4.93;;;15.70;99.90;;;;;;7351844;32;20165;-61
2022/05/11 06:15:42;;;;;;;10.55;5.70;;;15.90;99.90;;;;;;7352955;32;20102;-62
2022/05/11 06:19:44;;;;;;;10.25;6.87;;;16.10;99.90;;;;;;7356990;32;20211;-60
2022/05/11 06:23:46;;;;;;;9.27;5.80;;;16.40;99.90;;;;;;7346589;32;20211;-62
2022/05/11 06:27:48;;;;;;;14.52;5.43;;;16.60;99.90;;;;;;7341261;32;20111;-62
2022/05/11 06:31:50;;;;;;;8.38;5.20;;;17.30;99.90;;;;;;7364264;32;20573;-62
2022/05/11 06:35:51;;;;;;;11.25;5.20;;;18.10;99.90;;;;;;7339423;32;20133;-64
2022/05/11 06:39:53;;;;;;;7.85;5.37;;;19.30;99.90;;;;;;7345316;32;20261;-62
2022/05/11 06:43:55;;;;;;;11.70;6.53;;;20.30;99.90;;;;;;7355747;32;20106;-63
2022/05/11 06:47:57;;;;;;;10.57;6.82;;;20.90;99.90;;;;;;7339519;32;20201;-62
2022/05/11 06:51:59;;;;;;;10.82;6.53;;;20.80;99.90;;;;;;7344938;32;20114;-63
2022/05/11 07:00:21;;;;;;;16.80;7.30;;;21.10;99.90;;;;;;7346987;32;20456;-62
2022/05/11 07:04:24;;;;;;;11.05;6.43;;;20.70;99.90;;;;;;7358722;32;20106;-61
2022/05/11 07:08:37;;;;;;;10.52;5.80;;;20.40;99.90;;;;;;7357285;32;20103;-61
2022/05/11 07:12:45;;;;;;;13.85;4.82;;;19.90;99.90;;;;;;7358419;32;20150;-64
2022/05/11 07:16:47;;;;;;;6.68;3.50;;;19.70;99.90;;;;;;7354764;32;20178;-62
2022/05/11 07:20:51;;;;;;;9.57;3.10;;;19.50;99.90;;;;;;7355491;32;20125;-64
2022/05/11 07:24:54;;;;;;;5.78;2.95;;;19.60;99.90;;;;;;7335769;32;20793;-62
2022/05/11 07:28:55;;;;;;;7.03;2.78;;;20.00;99.90;;;;;;7357016;32;20225;-63
2022/05/11 07:32:57;;;;;;;7.53;3.12;;;20.30;99.90;;;;;;7360868;32;20224;-61
2022/05/11 07:36:59;;;;;;;9.38;3.60;;;20.10;99.90;;;;;;7361470;32;20491;-62
2022/05/11 07:41:00;;;;;;;6.97;3.05;;;19.90;99.90;;;;;;7357688;32;20784;-63
2022/05/11 07:45:03;;;;;;;7.95;2.85;;;19.80;99.90;;;;;;7343579;32;20533;-62
2022/05/11 07:49:06;;;;;;;7.12;2.95;;;19.70;99.90;;;;;;7368627;32;20133;-64
2022/05/11 07:53:08;;;;;;;6.03;2.15;;;19.70;99.90;;;;;;7360529;32;20931;-63
2022/05/11 08:01:31;;;;;;;3.87;2.22;;;19.40;99.90;;;;;;7357296;32;20230;-62
2022/05/11 08:05:33;;;;;;;4.57;2.10;;;19.40;99.90;;;;;;7351347;32;20999;-62
2022/05/11 08:09:35;;;;;;;5.60;2.00;;;19.30;99.90;;;;;;7337661;32;20839;-64
2022/05/11 08:13:37;;;;;;;6.70;2.10;;;19.40;99.90;;;;;;7348196;32;20239;-62
2022/05/11 08:17:42;;;;;;;4.40;1.70;;;19.60;99.90;;;;;;7333935;32;21258;-64
2022/05/11 08:21:43;;;;;;;3.47;1.90;;;19.50;99.90;;;;;;7342964;32;20189;-61
2022/05/11 08:25:49;;;;;;;6.90;2.28;;;19.90;99.90;;;;;;7354017;32;20562;-65
2022/05/11 08:34:11;;;;;;;5.95;1.60;;;21.20;99.90;;;;;;7365814;32;20238;-63
2022/05/11 08:38:13;;;;;;;6.72;1.70;;;22.70;99.90;;;;;;7351996;32;20111;-60
2022/05/11 08:42:15;;;;;;;4.55;1.40;;;23.70;99.90;;;;;;7346304;32;20139;-61
2022/05/11 08:46:45;;;;;;;6.05;1.50;;;24.60;99.90;;;;;;7349975;32;20212;-60
2022/05/11 08:50:48;;;;;;;8.80;2.17;;;25.00;96.80;;;;;;7353811;32;20472;-64
2022/05/11 08:55:05;;;;;;;2.25;1.52;;;25.20;95.30;;;;;;7362229;32;20099;-63
2022/05/11 08:59:08;;;;;;;;;;;25.40;93.40;;;;;;7327736;32;20127;-63
2022/05/11 09:03:36;;;;;;;4.10;1.83;;;25.50;92.90;;;;;;7354629;32;20782;-64
2022/05/11 09:07:41;;;;;;;5.25;1.73;;;26.00;90.30;;;;;;7360389;32;20122;-64
2022/05/11 09:11:47;;;;;;;4.75;1.70;;;26.20;88.00;;;;;;7357919;32;20170;-64
2022/05/11 09:15:54;;;;;;;6.00;2.37;;;26.10;89.20;;;;;;7350461;32;20249;-63
2022/05/11 09:20:14;;;;;;;4.55;1.80;;;26.50;89.10;;;;;;7341713;32;20210;-64
2022/05/11 09:24:18;;;;;;;4.43;2.35;;;26.20;85.30;;;;;;7364652;32;20107;-64
2022/05/11 09:28:25;;;;;;;8.20;2.80;;;26.20;83.40;;;;;;7355903;32;20246;-63
2022/05/11 09:32:45;;;;;;;6.65;2.45;;;25.80;84.60;;;;;;7354366;32;20125;-63
2022/05/11 09:37:01;;;;;;;7.37;2.50;;;26.10;84.90;;;;;;7349947;32;21171;-64
2022/05/11 09:41:11;;;;;;;5.25;2.72;;;26.00;85.10;;;;;;7329687;32;20563;-64
2022/05/11 09:45:13;;;;;;;6.72;3.25;;;26.30;83.80;;;;;;7350865;32;20119;-63
2022/05/11 09:49:17;;;;;;;5.15;2.80;;;25.90;84.20;;;;;;7364816;32;20115;-65
2022/05/11 09:53:25;;;;;;;5.75;3.30;;;26.40;82.30;;;;;;7341807;32;20103;-64
2022/05/11 09:57:29;;;;;;;4.90;2.67;;;26.30;81.40;;;;;;7359891;32;20198;-64
2022/05/11 10:01:31;;;;;;;6.25;2.72;;;26.10;84.80;;;;;;7345283;32;20109;-65
2022/05/11 10:05:39;;;;;;;8.43;3.47;;;26.30;83.20;;;;;;7358400;32;20269;-64
2022/05/11 10:09:50;;;;;;;4.75;2.62;;;26.10;80.40;;;;;;7350915;32;20557;-64
2022/05/11 10:23:05;;;;;;;8.20;3.62;;;26.10;79.50;;;;;;7355921;32;20148;-63
2022/05/11 10:27:13;;;;;;;8.13;3.03;;;26.30;81.40;;;;;;7351484;32;20195;-64
2022/05/11 10:31:31;;;;;;;5.75;2.83;;;26.20;81.60;;;;;;7359891;32;20519;-64
2022/05/11 10:35:44;;;;;;;5.43;2.22;;;26.50;80.60;;;;;;7354324;32;20434;-65
2022/05/11 10:40:23;;;;;;;9.10;2.42;;;26.30;86.30;;;;;;7345318;32;20206;-64
2022/05/11 10:44:30;;;;;;;5.82;2.22;;;26.20;82.30;;;;;;7356956;32;20141;-63
2022/05/11 10:49:09;;;;;;;8.60;2.40;;;26.40;79.70;;;;;;7354814;32;20226;-63
2022/05/11 10:53:30;;;;;;;10.07;2.65;;;26.30;80.10;;;;;;7360653;32;20734;-65
2022/05/11 10:57:41;;;;;;;6.03;2.35;;;26.10;82.80;;;;;;7353360;32;20129;-57
2022/05/11 11:02:04;;;;;;;3.62;2.28;;;25.90;81.90;;;;;;7354063;32;20842;-64
2022/05/11 11:10:44;;;;;;;9.68;2.47;;;25.70;82.00;;;;;;7347041;32;20177;-64
2022/05/11 11:14:50;;;;;;;7.05;3.00;;;25.10;82.70;;;;;;7332209;32;20545;-65
2022/05/11 11:18:53;;;;;;;5.53;2.37;;;24.80;84.90;;;;;;7358801;32;20103;-63
2022/05/11 11:23:06;;;;;;;4.55;2.20;;;25.20;84.90;;;;;;7349984;32;20367;-61
2022/05/11 11:27:08;;;;;;;7.18;2.28;;;25.10;84.30;;;;;;7353228;32;20202;-60
2022/05/11 11:31:12;;;;;;;6.90;2.40;;;25.00;84.20;;;;;;7356600;32;20185;-62
2022/05/11 11:35:23;;;;;;;3.83;1.67;;;25.20;84.00;;;;;;7338933;32;20133;-60
2022/05/11 11:39:52;;;;;;;3.47;1.92;;;25.10;87.70;;;;;;7357021;32;20099;-60
2022/05/11 11:44:00;;;;;;;9.50;2.10;;;25.30;82.70;;;;;;7341349;32;20248;-60
2022/05/11 11:48:05;;;;;;;6.65;2.10;;;25.20;82.80;;;;;;7353482;32;20130;-60
2022/05/11 11:52:09;;;;;;;7.30;2.08;;;25.10;83.20;;;;;;7355786;32;20149;-60
2022/05/11 11:56:23;;;;;;;7.80;2.15;;;25.20;84.30;;;;;;7337244;32;20205;-62
2022/05/11 12:00:46;;;;;;;3.28;2.08;;;25.00;83.60;;;;;;7347920;32;20260;-64
2022/05/11 12:04:57;;;;;;;4.78;2.10;;;25.40;84.10;;;;;;7352149;32;20213;-62
2022/05/11 12:17:55;;;;;;;10.80;2.30;;;25.00;82.40;;;;;;7351809;32;20511;-57
2022/05/11 12:22:22;;;;;;;6.85;2.67;;;24.80;84.70;;;;;;7347518;32;20818;-57
2022/05/11 12:26:33;;;;;;;6.43;2.13;;;24.90;82.80;;;;;;7361075;32;20225;-56
2022/05/11 12:30:42;;;;;;;8.48;2.42;;;25.10;82.80;;;;;;7362862;32;20247;-57
2022/05/11 12:34:46;;;;;;;4.55;2.30;;;24.80;83.00;;;;;;7360869;32;20137;-57
2022/05/11 12:38:52;;;;;;;6.78;2.65;;;25.00;83.60;;;;;;7349738;32;20946;-58
2022/05/11 12:42:56;;;;;;;6.87;2.08;;;25.10;83.00;;;;;;7351629;32;20221;-56
2022/05/11 12:47:01;;;;;;;5.97;1.98;;;25.10;81.80;;;;;;7351464;32;20678;-56
2022/05/11 12:51:13;;;;;;;5.45;2.40;;;25.20;83.10;;;;;;7356395;32;20221;-56
2022/05/11 12:55:26;;;;;;;5.85;2.10;;;25.40;84.50;;;;;;7359645;32;20103;-62
2022/05/11 12:59:30;;;;;;;8.43;2.28;;;25.30;82.80;;;;;;7357034;32;20114;-59
2022/05/11 13:03:36;;;;;;;9.88;2.00;;;25.40;84.40;;;;;;7353299;32;20216;-59
2022/05/11 13:07:51;;;;;;;6.75;2.20;;;25.60;83.50;;;;;;7346252;32;20837;-59
2022/05/11 13:11:53;;;;;;;7.60;2.42;;;25.40;83.30;;;;;;7352334;32;20107;-60
2022/05/11 13:16:08;;;;;;;6.15;2.40;;;25.50;83.90;;;;;;7360480;32;20132;-62
2022/05/11 13:20:23;;;;;;;5.75;2.60;;;25.70;82.20;;;;;;7355572;32;20127;-62
2022/05/11 13:24:42;;;;;;;5.20;1.90;;;25.60;84.30;;;;;;7364510;32;20567;-62
2022/05/11 13:29:00;;;;;;;7.78;2.30;;;25.60;85.20;;;;;;7364140;32;20133;-63
2022/05/11 13:33:23;;;;;;;4.62;2.20;;;25.60;86.20;;;;;;7362715;32;20183;-63
2022/05/11 13:37:27;;;;;;;9.88;2.53;;;25.90;85.00;;;;;;7364410;32;20111;-62
2022/05/11 13:41:34;;;;;;;4.57;2.45;;;25.90;85.50;;;;;;7352781;32;20118;-63
2022/05/11 13:45:36;;;;;;;8.15;2.58;;;25.90;84.60;;;;;;7355619;32;20102;-64
2022/05/11 13:49:40;;;;;;;10.25;2.78;;;25.90;82.70;;;;;;7343506;32;20125;-63
2022/05/11 13:53:43;;;;;;;8.85;2.22;;;26.00;83.90;;;;;;7356540;32;20158;-62
2022/05/11 13:57:45;;;;;;;10.75;2.53;;;25.70;83.20;;;;;;7362670;32;20862;-62
2022/05/11 14:01:50;;;;;;;3.30;2.40;;;25.70;82.00;;;;;;7362457;32;20253;-62
2022/05/11 14:05:52;;;;;;;5.28;2.33;;;26.00;82.70;;;;;;7361550;32;20119;-63
2022/05/11 14:09:55;;;;;;;4.62;2.08;;;25.90;86.70;;;;;;7359740;32;20783;-62
2022/05/11 14:13:56;;;;;;;2.85;2.15;;;26.00;84.40;;;;;;7360926;32;20162;-62
2022/05/11 14:17:58;;;;;;;8.00;2.05;;;26.30;82.10;;;;;;7359275;32;20212;-63
2022/05/11 14:22:00;;;;;;;6.20;1.83;;;26.20;81.40;;;;;;7355988;32;20202;-62
2022/05/11 14:26:02;;;;;;;4.30;1.87;;;26.00;81.60;;;;;;7360837;32;20106;-63
2022/05/11 14:30:08;;;;;;;6.62;1.98;;;25.90;81.60;;;;;;7361153;32;20115;-62
2022/05/11 14:34:24;;;;;;;6.55;2.20;;;26.10;88.00;;;;;;7358320;32;20545;-62
2022/05/11 14:38:26;;;;;;;7.05;4.32;;;26.10;82.10;;;;;;7354609;32;20431;-63
2022/05/11 14:42:29;;;;;;;5.75;1.90;;;26.20;80.90;;;;;;7359095;32;20722;-62
2022/05/11 14:46:31;;;;;;;7.75;1.92;;;26.20;80.50;;;;;;7353606;32;20245;-62
2022/05/11 14:50:32;;;;;;;5.87;1.90;;;26.30;79.40;;;;;;7357891;32;20270;-61
2022/05/11 14:54:38;;;;;;;4.68;1.70;;;26.60;79.50;;;;;;7356667;32;20355;-61
2022/05/11 15:03:01;;;;;;;5.28;1.60;;;26.80;72.50;;;;;;7354685;32;20206;-62
2022/05/11 15:07:04;;;;;;;5.03;1.58;;;26.30;74.60;;;;;;7361277;32;20219;-62
2022/05/11 15:15:26;;;;;;;6.70;1.20;;;26.20;76.00;;;;;;7352528;32;20189;-63
2022/05/11 15:19:28;;;;;;;4.95;1.30;;;26.10;73.10;;;;;;7357298;32;20575;-62
2022/05/11 15:23:30;;;;;;;6.97;1.30;;;26.00;73.50;;;;;;7351287;32;20134;-62
2022/05/11 15:27:32;;;;;;;7.62;1.23;;;26.10;70.70;;;;;;7361332;32;20233;-62
2022/05/11 15:31:34;;;;;;;5.93;0.90;;;26.00;68.90;;;;;;7360451;32;20106;-64
2022/05/11 15:35:36;;;;;;;8.93;1.48;;;25.80;69.50;;;;;;7322604;32;20436;-63
2022/05/11 15:39:38;;;;;;;3.22;1.23;;;25.40;67.10;;;;;;7347673;32;20154;-62
2022/05/11 15:43:39;;;;;;;5.50;1.10;;;25.30;68.50;;;;;;7342773;32;20526;-64
2022/05/11 15:47:42;;;;;;;5.65;1.20;;;25.20;66.90;;;;;;7355967;32;20835;-62
2022/05/11 15:51:44;;;;;;;5.97;1.30;;;25.00;68.00;;;;;;7344265;32;20201;-56
2022/05/11 15:55:46;;;;;;;2.75;1.17;;;24.80;69.60;;;;;;7361880;32;20348;-56
2022/05/11 15:59:47;;;;;;;4.37;1.20;;;24.80;70.90;;;;;;7347591;32;20122;-56
2022/05/11 16:03:49;;;;;;;3.83;1.30;;;24.90;69.10;;;;;;7278617;32;20216;-57
2022/05/11 16:07:51;;;;;;;4.75;1.20;;;24.90;72.50;;;;;;7230651;32;20754;-56
2022/05/11 16:11:53;;;;;;;5.85;1.12;;;24.90;69.80;;;;;;7241476;32;20643;-56
2022/05/11 16:15:55;;;;;;;3.30;1.00;;;24.90;69.40;;;;;;7214637;32;20120;-57
2022/05/11 16:19:57;;;;;;;6.57;1.58;;;24.90;71.30;;;;;;7245337;32;20142;-56
2022/05/11 16:23:58;;;;;;;2.47;1.02;;;24.90;70.90;;;;;;7218623;32;20202;-56
2022/05/11 16:28:01;;;;;;;3.08;1.12;;;24.90;71.60;;;;;;7244119;32;20853;-58
2022/05/11 16:32:11;;;;;;;7.45;1.10;;;24.90;70.90;;;;;;7217047;32;20101;-56
2022/05/11 16:36:14;;;;;;;6.60;2.85;;;24.80;71.20;;;;;;7204899;32;20112;-61
2022/05/11 16:40:15;;;;;;;5.97;1.08;;;24.80;73.50;;;;;;7313253;32;20107;-62
2022/05/11 16:44:18;;;;;;;7.78;1.30;;;24.70;71.90;;;;;;7213833;32;20205;-64
2022/05/11 16:48:20;;;;;;;6.50;1.12;;;24.60;73.80;;;;;;7206336;32;20543;-66
2022/05/11 16:52:23;;;;;;;4.75;1.23;;;24.40;71.30;;;;;;7204571;32;20196;-65
2022/05/11 16:56:25;;;;;;;3.33;0.98;;;24.40;73.70;;;;;;7213339;32;20740;-63
2022/05/11 17:00:26;;;;;;;3.87;1.00;;;24.40;72.60;;;;;;7231388;32;20152;-64
2022/05/11 17:04:29;;;;;;;4.85;1.00;;;24.50;72.30;;;;;;7355755;32;20133;-64
2022/05/11 17:08:30;;;;;;;3.10;1.40;;;24.20;73.40;;;;;;7364497;32;20174;-64
2022/05/11 17:12:33;;;;;;;6.37;1.70;;;23.90;74.90;;;;;;7352325;32;20801;-63
2022/05/11 17:16:38;;;;;;;4.83;1.20;;;23.70;76.10;;;;;;7348861;32;20201;-64
2022/05/11 17:20:40;;;;;;;6.32;1.00;;;23.50;76.50;;;;;;7363764;32;20111;-63
2022/05/11 17:24:42;;;;;;;4.22;1.17;;;23.50;77.60;;;;;;7349916;32;20537;-64
2022/05/11 17:28:45;;;;;;;6.57;1.37;;;23.40;79.10;;;;;;7360355;32;20237;-64
2022/05/11 17:32:47;;;;;;;2.62;1.02;;;23.50;79.30;;;;;;7361156;32;20194;-65
2022/05/11 17:36:49;;;;;;;9.10;1.25;;;23.50;79.80;;;;;;7342738;32;20442;-63
2022/05/11 17:40:51;;;;;;;3.85;0.90;;;23.50;79.20;;;;;;7342397;32;20115;-64
2022/05/11 17:44:53;;;;;;;3.33;0.90;;;23.30;80.50;;;;;;7355870;32;20733;-64
2022/05/11 17:48:55;;;;;;;4.10;1.30;;;23.30;80.90;;;;;;7359261;32;20649;-65
2022/05/11 17:52:58;;;;;;;8.23;1.10;;;23.30;81.10;;;;;;7338057;32;20355;-63
2022/05/11 17:57:00;;;;;;;7.00;1.37;;;23.20;81.20;;;;;;7346077;32;20115;-64
2022/05/11 18:01:02;;;;;;;4.22;1.23;;;23.20;82.10;;;;;;7346490;32;20109;-64
2022/05/11 18:05:05;;;;;;;7.68;1.17;;;23.10;82.40;;;;;;7284751;32;20116;-63
2022/05/11 18:09:07;;;;;;;4.97;1.50;;;23.00;81.80;;;;;;7235871;32;20192;-63
2022/05/11 18:13:10;;;;;;;2.78;0.98;;;22.90;82.10;;;;;;7294455;32;20801;-63
2022/05/11 18:17:11;;;;;;;6.45;1.25;;;22.80;83.10;;;;;;7225480;32;20152;-62
2022/05/11 18:21:17;;;;;;;6.07;0.90;;;22.90;83.90;;;;;;7243829;32;20696;-63
2022/05/11 18:25:20;;;;;;;3.83;1.25;;;22.60;86.00;;;;;;7246656;32;20214;-63
2022/05/11 18:29:21;;;;;;;29.25;2.20;;;22.60;85.40;;;;;;7232048;32;20109;-62
2022/05/11 18:33:24;;;;;;;15.82;1.35;;;22.50;86.50;;;;;;7269484;32;20196;-62
2022/05/11 18:37:26;;;;;;;4.32;1.20;;;22.40;86.60;;;;;;7281973;32;20184;-63
2022/05/11 18:41:28;;;;;;;6.85;1.10;;;22.40;86.90;;;;;;7244311;32;20550;-64
2022/05/11 18:45:30;;;;;;;4.97;1.42;;;22.20;87.60;;;;;;7247953;32;20192;-65
2022/05/11 18:49:32;;;;;;;4.40;1.17;;;22.10;87.90;;;;;;7237627;32;20109;-64
2022/05/11 18:53:34;;;;;;;3.10;0.90;;;22.00;89.30;;;;;;7234573;32;20137;-66
2022/05/11 18:57:36;;;;;;;5.07;1.10;;;21.90;90.30;;;;;;7251616;32;20560;-65
2022/05/11 19:01:38;;;;;;;2.50;0.98;;;21.80;90.10;;;;;;7268407;32;20104;-66
2022/05/11 19:05:40;;;;;;;5.00;1.10;;;21.80;90.10;;;;;;7362539;32;20194;-65
2022/05/11 19:09:42;;;;;;;7.07;1.00;;;21.60;90.90;;;;;;7355669;32;20110;-66
2022/05/11 19:13:45;;;;;;;3.50;1.12;;;21.60;91.40;;;;;;7360223;32;20234;-67
2022/05/11 19:17:48;;;;;;;6.05;1.52;;;21.30;92.70;;;;;;7346006;32;20106;-65
2022/05/11 19:21:51;;;;;;;7.82;1.20;;;21.30;92.40;;;;;;7340090;32;20127;-63
2022/05/11 19:25:56;;;;;;;5.43;1.52;;;21.40;92.90;;;;;;7355018;32;20145;-65
2022/05/11 19:29:58;;;;;;;3.80;1.12;;;21.40;93.40;;;;;;7360880;32;20133;-63
2022/05/11 19:34:00;;;;;;;1.80;1.10;;;21.30;93.50;;;;;;7353571;32;20677;-63
2022/05/11 19:38:02;;;;;;;2.90;1.00;;;21.20;94.70;;;;;;7367306;32;20205;-63
2022/05/11 19:42:03;;;;;;;4.90;1.00;;;21.20;94.20;;;;;;7351936;32;20635;-64
2022/05/11 19:46:07;;;;;;;3.83;1.10;;;21.20;94.50;;;;;;7362052;32;20111;-63
2022/05/11 19:50:09;;;;;;;3.75;1.25;;;21.20;94.60;;;;;;7352089;32;20297;-65
2022/05/11 19:54:13;;;;;;;2.35;1.02;;;21.20;94.50;;;;;;7363914;32;20183;-63
2022/05/11 19:58:18;;;;;;;2.60;0.98;;;21.20;94.90;;;;;;7364629;32;20110;-64
2022/05/11 20:02:20;;;;;;;4.47;0.90;;;21.10;95.30;;;;;;7368310;32;20249;-63
2022/05/11 20:06:24;;;;;;;2.30;1.00;;;21.10;95.40;;;;;;7356174;32;20257;-62
2022/05/11 20:10:32;;;;;;;3.95;1.00;;;21.10;95.10;;;;;;7351489;32;20568;-63
2022/05/11 20:14:34;;;;;;;3.80;1.20;;;21.00;94.90;;;;;;7348888;32;20220;-63
2022/05/11 20:18:37;;;;;;;2.35;0.90;;;21.00;95.40;;;;;;7346917;32;20115;-63
2022/05/11 20:22:39;;;;;;;4.20;1.00;;;20.80;95.90;;;;;;7368080;32;20255;-63
2022/05/11 20:26:41;;;;;;;4.80;1.00;;;20.80;96.40;;;;;;7367955;32;20173;-63
2022/05/11 20:30:43;;;;;;;10.07;1.80;;;20.80;96.50;;;;;;7362156;32;20264;-63
2022/05/11 20:39:05;;;;;;;7.87;2.17;;;20.50;97.90;;;;;;7356700;32;20110;-65
2022/05/11 20:43:07;;;;;;;9.90;2.30;;;20.30;99.10;;;;;;7359211;32;20187;-63
2022/05/11 20:47:10;;;;;;;14.07;3.00;;;20.20;98.80;;;;;;7343085;32;20210;-61
2022/05/11 20:51:12;;;;;;;11.25;2.87;;;19.80;99.90;;;;;;7363877;32;20234;-62
2022/05/11 20:55:19;;;;;;;9.02;2.35;;;19.30;99.90;;;;;;7361950;32;20216;-63
2022/05/11 20:59:22;;;;;;;12.32;2.33;;;19.00;99.90;;;;;;7358333;32;20210;-63
2022/05/11 21:03:23;;;;;;;10.68;2.42;;;18.70;99.90;;;;;;7362641;32;20760;-62
2022/05/11 21:07:25;;;;;;;11.52;2.80;;;18.40;99.90;;;;;;7354257;32;20236;-62
2022/05/11 21:11:27;;;;;;;11.23;2.80;;;18.20;99.90;;;;;;7357191;32;20117;-62
2022/05/11 21:15:29;;;;;;;11.27;3.03;;;18.10;99.90;;;;;;7360927;32;20193;-64
2022/05/11 21:19:30;;;;;;;18.83;3.10;;;17.80;99.90;;;;;;7362762;32;20558;-63
2022/05/11 21:23:32;;;;;;;7.85;2.35;;;17.60;99.90;;;;;;7362051;32;20216;-63
2022/05/11 21:27:34;;;;;;;10.52;2.97;;;17.50;99.90;;;;;;7359385;32;20103;-63
2022/05/11 21:31:36;;;;;;;13.20;3.30;;;17.30;99.90;;;;;;7355823;32;20107;-63
2022/05/11 21:35:39;;;;;;;13.90;2.95;;;17.10;99.90;;;;;;7351372;32;20440;-62
2022/05/11 21:39:41;;;;;;;15.45;3.70;;;16.90;99.90;;;;;;7362269;32;20467;-62
2022/05/11 21:43:43;;;;;;;11.80;3.25;;;16.80;99.90;;;;;;7365749;32;20144;-62
2022/05/11 21:47:45;;;;;;;9.43;2.60;;;16.90;99.90;;;;;;7361053;32;20256;-61
2022/05/11 21:51:47;;;;;;;14.82;2.35;;;16.90;99.90;;;;;;7341229;32;20157;-64
2022/05/11 21:55:48;;;;;;;11.90;2.30;;;16.90;99.90;;;;;;7357015;32;20126;-62
2022/05/11 21:59:54;;;;;;;10.70;2.28;;;16.90;99.90;;;;;;7365335;32;20253;-62
2022/05/11 22:03:56;;;;;;;8.30;1.80;;;16.90;99.90;;;;;;7355310;32;20107;-63
2022/05/11 22:08:00;;;;;;;9.10;2.20;;;17.00;99.90;;;;;;7359410;32;20130;-62